• Join FlightAware (Why Join?)
  • Login
  • US Flag 
05:09AM EDT


 

Airport Tracker/Info


-or-


 

Live Flight TrackerFlight Track Log ✈ N234GF ✈ 08-May-2013 ✈ CYVR - KPTK

Flight Track Log - Related Links

Times and Time Zones

All times are in EDT time to prevent confusion due to time zone crossing. See the N234GF flight status page for this flight to view local times or setup timezone preferences in your user account.

Time Position Orientation Groundspeed Altitude Reporting Facility
EDT Latitude Longitude Course Direction KTS MPH feet Rate Location/Type
05:19PM 49.1667 -123.1333 104° East 200 230 1,200  Level Vancouver Center
05:20PM 49.1500 -123.0333 104° East 250 288 3,700 2,820 Climbing Vancouver Center
05:21PM 49.1167 -122.9333 117° Southeast 270 311 6,900 2,940 Climbing Vancouver Center
05:22PM 49.0833 -122.8333 117° Southeast 290 334 9,600 2,520 Climbing Vancouver Center
05:23PM 49.0333 -122.7333 127° Southeast 300 345 12,000 2,280 Climbing Vancouver Center
05:24PM 49.0000 -122.6000 111° Southeast 330 380 14,200 2,220 Climbing Vancouver Center
05:25PM 48.9667 -122.4833 113° Southeast 340 391 16,500 2,340 Climbing Vancouver Center
05:26PM 48.9333 -122.3333 109° East 350 403 18,900 2,160 Climbing Vancouver Center
05:27PM 48.9000 -122.2000 111° Southeast 340 391 20,900 1,860 Climbing Vancouver Center
05:28PM 48.8500 -122.0500 117° Southeast 350 403 22,700 1,740 Climbing Vancouver Center
05:29PM 48.8167 -121.9167 111° Southeast 350 403 24,400 1,560 Climbing Vancouver Center
05:30PM 48.8072 -121.8147 98° East 359 413 25,600 1,200 Climbing Seattle Center
05:31PM 48.7706 -121.6703 111° Southeast 371 427 26,700 1,080 Climbing Seattle Center
05:32PM 48.7431 -121.5175 105° East 377 434 27,900 1,080 Climbing Seattle Center
05:33PM 48.7136 -121.3619 106° East 387 445 29,000 1,020 Climbing Seattle Center
05:34PM 48.6825 -121.2031 106° East 395 455 30,000 1,020 Climbing Seattle Center
05:35PM 48.6525 -121.0444 106° East 396 456 31,100 1,020 Climbing Seattle Center
05:36PM 48.6222 -120.8867 106° East 395 455 32,200 1,140 Climbing Seattle Center
05:37PM 48.5847 -120.7014 107° East 390 449 33,500 1,140 Climbing Seattle Center
05:38PM 48.5556 -120.5475 106° East 387 445 34,500 960 Climbing Seattle Center
05:39PM 48.5289 -120.4072 106° East 379 436 35,500 840 Climbing Seattle Center
05:40PM 48.4964 -120.2589 108° East 374 430 36,300 660 Climbing Seattle Center
05:41PM 48.4719 -120.1094 104° East 371 427 36,900 300 Climbing Seattle Center
05:42PM 48.4736 -119.9531 89° East 374 430 37,000  Climbing Seattle Center
05:43PM 48.4739 -119.7886 90° East 388 447 37,000  Level Seattle Center
05:44PM 48.4739 -119.5842 90° East 406 467 37,000  Level Seattle Center
05:45PM 48.4747 -119.4069 90° East 421 484 37,000  Level Seattle Center
05:46PM 48.4742 -119.2264 90° East 430 495 37,000  Level Seattle Center
05:47PM 48.4708 -119.0444 92° East 432 497 37,000  Level Seattle Center
05:48PM 48.4706 -118.8611 90° East 435 501 37,000  Level Seattle Center
05:49PM 48.4694 -118.6756 90° East 441 507 37,000  Level Seattle Center
05:50PM 48.4672 -118.4925 91° East 439 505 37,000  Level Seattle Center
05:51PM 48.4644 -118.3081 91° East 440 506 37,000  Level Seattle Center
05:52PM 48.4619 -118.1244 91° East 440 506 37,000  Level Seattle Center
05:53PM 48.4592 -117.9414 91° East 438 504 37,000  Level Seattle Center
05:54PM 48.4333 -117.7333 101° East 440 506 37,000  Level Vancouver Center
05:55PM 48.4333 -117.5500 90° East 440 506 37,000  Level Vancouver Center
05:56PM 48.4333 -117.3833 90° East 440 506 37,000  Level Vancouver Center
05:57PM 48.4439 -117.2058 85° East 440 506 37,000 120 Level Seattle Center
05:58PM 48.4392 -116.9856 92° East 439 505 37,400 600 Climbing Seattle Center
05:59PM 48.4167 -116.8333 103° East 430 495 38,100 720 Climbing Vancouver Center
06:00PM 48.4167 -116.6500 90° East 420 483 38,700 420 Climbing Vancouver Center
06:01PM 48.4167 -116.4833 90° East 420 483 39,000 180 Climbing Vancouver Center
06:01PM 48.4239 -116.4608 64° Northeast 415 478 39,000  Level Seattle Center
06:02PM 48.4197 -116.2861 92° East 417 480 39,000  Level Seattle Center
06:03PM 48.4139 -116.1069 93° East 425 489 39,000  Level Seattle Center
06:04PM 48.4075 -115.9144 93° East 430 495 39,000  Level Seattle Center
06:05PM 48.4008 -115.7336 93° East 433 498 39,000  Level Seattle Center
06:06PM 48.3942 -115.5494 93° East 438 504 39,000  Level Seattle Center
06:07PM 48.3875 -115.3675 93° East 437 503 39,000  Level Seattle Center
06:08PM 48.3814 -115.1847 93° East 439 505 39,000  Level Seattle Center
06:09PM 48.3725 -115.0014 94° East 439 505 39,000  Level Seattle Center
06:10PM 48.3647 -114.8181 94° East 439 505 39,000  Level Seattle Center
06:11PM 48.3561 -114.6336 94° East 440 506 39,000  Level Seattle Center
06:12PM 48.3503 -114.4858 93° East 441 507 39,000  Level Salt Lake Center
06:13PM 48.3392 -114.2631 94° East 442 509 39,000  Level Salt Lake Center
06:14PM 48.3292 -114.0756 95° East 445 512 39,000  Level Salt Lake Center
06:15PM 48.3206 -113.8883 94° East 447 514 39,000  Level Salt Lake Center
06:16PM 48.3097 -113.7033 95° East 445 512 39,000  Level Salt Lake Center
06:17PM 48.3003 -113.5169 94° East 446 513 39,000  Level Salt Lake Center
06:18PM 48.2878 -113.2958 95° East 444 511 39,000  Level Salt Lake Center
06:19PM 48.2772 -113.1117 95° East 444 511 39,000  Level Salt Lake Center
06:20PM 48.2661 -112.9250 95° East 449 517 39,000  Level Salt Lake Center
06:21PM 48.2542 -112.7411 96° East 445 512 39,000  Level Salt Lake Center
06:22PM 48.2419 -112.5461 95° East 449 517 39,000  Level Salt Lake Center
06:24PM 48.2300 -112.3597 95° East 450 518 39,000  Level Salt Lake Center
06:25PM 48.2178 -112.1739 96° East 449 517 39,000  Level Salt Lake Center
06:26PM 48.2044 -111.9864 96° East 451 519 39,000  Level Salt Lake Center
06:27PM 48.1917 -111.7986 96° East 452 520 39,000  Level Salt Lake Center
06:28PM 48.1756 -111.5733 96° East 452 520 39,000  Level Salt Lake Center
06:29PM 48.1633 -111.3867 96° East 451 519 39,000  Level Salt Lake Center
06:30PM 48.1483 -111.1981 97° East 452 520 39,000  Level Salt Lake Center
06:31PM 48.1344 -111.0089 96° East 455 524 39,000  Level Salt Lake Center
06:32PM 48.1197 -110.8208 97° East 453 521 39,000  Level Salt Lake Center
06:33PM 48.1042 -110.6322 97° East 455 524 39,000  Level Salt Lake Center
06:34PM 48.0894 -110.4447 97° East 454 522 39,000  Level Salt Lake Center
06:35PM 48.0747 -110.2567 97° East 454 522 39,000  Level Salt Lake Center
06:36PM 48.0556 -110.0306 97° East 457 526 39,000  Level Salt Lake Center
06:37PM 48.0383 -109.8408 98° East 459 528 39,000  Level Salt Lake Center
06:38PM 48.0222 -109.6536 97° East 458 527 39,000  Level Salt Lake Center
06:39PM 48.0058 -109.4656 97° East 457 526 39,000  Level Salt Lake Center
06:40PM 47.9886 -109.2769 98° East 458 527 39,000  Level Salt Lake Center
06:41PM 47.9708 -109.0886 98° East 459 528 39,000  Level Salt Lake Center
06:42PM 47.9517 -108.8981 98° East 463 533 39,000  Level Salt Lake Center
06:43PM 47.9306 -108.6706 98° East 463 533 39,000  Level Salt Lake Center
06:44PM 47.9117 -108.4814 98° East 463 533 39,000  Level Salt Lake Center
06:45PM 47.8925 -108.2931 99° East 462 532 39,000  Level Salt Lake Center
06:46PM 47.8739 -108.1028 98° East 464 534 39,000  Level Salt Lake Center
06:47PM 47.8531 -107.9136 99° East 465 535 39,000  Level Salt Lake Center
06:48PM 47.8331 -107.7231 99° East 466 536 39,000  Level Salt Lake Center
06:49PM 47.8125 -107.5328 99° East 467 537 39,000  Level Salt Lake Center
06:50PM 47.7908 -107.3361 99° East 469 540 39,000  Level Salt Lake Center
06:51PM 47.7644 -107.1058 100° East 470 541 39,000  Level Salt Lake Center
06:52PM 47.7436 -106.9167 99° East 468 539 39,000  Level Salt Lake Center
06:53PM 47.7214 -106.7261 100° East 469 540 39,000  Level Salt Lake Center
06:54PM 47.6994 -106.5367 100° East 469 540 39,000  Level Salt Lake Center
06:55PM 47.6761 -106.3464 100° East 469 540 39,000  Level Salt Lake Center
06:56PM 47.6542 -106.1567 100° East 469 540 39,000  Level Salt Lake Center
06:57PM 47.6306 -105.9678 100° East 468 539 39,000  Level Salt Lake Center
06:58PM 47.6064 -105.7789 101° East 468 539 39,000  Level Salt Lake Center
07:00PM 47.5786 -105.5536 100° East 466 536 39,000  Level Salt Lake Center
07:01PM 47.5542 -105.3636 101° East 470 541 39,000  Level Salt Lake Center
07:02PM 47.5297 -105.1756 101° East 469 540 39,000  Level Salt Lake Center
07:03PM 47.5039 -104.9881 101° East 468 539 39,000  Level Salt Lake Center
07:04PM 47.4789 -104.8022 101° East 466 536 39,000  Level Salt Lake Center
07:05PM 47.4547 -104.6153 101° East 466 536 39,000  Level Salt Lake Center
07:06PM 47.4231 -104.3897 102° East 468 539 39,000  Level Salt Lake Center
07:07PM 47.3981 -104.2056 101° East 466 536 39,000  Level Salt Lake Center
07:08PM 47.3711 -104.0194 102° East 467 537 39,000  Level Salt Lake Center
07:09PM 47.3458 -103.8364 101° East 466 536 39,000  Level Salt Lake Center
07:10PM 47.3203 -103.6517 101° East 466 536 39,000  Level Salt Lake Center
07:11PM 47.2939 -103.4672 102° East 466 536 39,000  Level Salt Lake Center
07:12PM 47.2611 -103.2481 102° East 463 533 39,000  Level Salt Lake Center
07:13PM 47.2333 -103.0636 102° East 464 534 39,000  Level Salt Lake Center
07:13PM 47.2183 -102.9556 102° East 462 532 39,000  Level Minneapolis Center
07:14PM 47.1925 -102.7697 101° East 464 534 39,000  Level Minneapolis Center
07:16PM 47.1628 -102.5883 103° East 462 532 39,000  Level Minneapolis Center
07:17PM 47.1358 -102.4039 102° East 462 532 39,000  Level Minneapolis Center
07:18PM 47.1064 -102.2206 103° East 464 534 39,000  Level Minneapolis Center
07:19PM 47.0700 -102.0028 104° East 461 531 39,000  Level Minneapolis Center
07:20PM 47.0397 -101.8192 104° East 464 534 39,000  Level Minneapolis Center
07:21PM 47.0100 -101.6375 103° East 461 531 39,000  Level Minneapolis Center
07:22PM 46.9811 -101.4619 104° East 461 531 39,000  Level Minneapolis Center
07:23PM 46.9447 -101.2408 103° East 464 534 39,000  Level Minneapolis Center
07:24PM 46.9139 -101.0581 104° East 463 533 39,000  Level Minneapolis Center
07:25PM 46.8831 -100.8744 104° East 464 534 39,000  Level Minneapolis Center
07:26PM 46.8508 -100.6908 104° East 467 537 39,000  Level Minneapolis Center
07:27PM 46.8200 -100.5117 104° East 460 529 39,000  Level Minneapolis Center
07:28PM 46.7886 -100.3319 104° East 457 526 39,000  Level Minneapolis Center
07:29PM 46.7556 -100.1517 105° East 458 527 39,000  Level Minneapolis Center
07:30PM 46.7194 -99.9500 105° East 458 527 39,000  Level Minneapolis Center
07:31PM 46.6878 -99.7714 104° East 457 526 39,000  Level Minneapolis Center
07:32PM 46.6542 -99.5947 105° East 456 525 39,000  Level Minneapolis Center
07:33PM 46.6219 -99.4183 105° East 454 522 39,000  Level Minneapolis Center
07:34PM 46.5828 -99.2056 105° East 456 525 39,000  Level Minneapolis Center
07:35PM 46.5492 -99.0311 106° East 453 521 39,000  Level Minneapolis Center
07:36PM 46.5156 -98.8539 105° East 455 524 39,000  Level Minneapolis Center
07:37PM 46.4819 -98.6783 105° East 455 524 39,000  Level Minneapolis Center
07:38PM 46.4472 -98.5028 106° East 455 524 39,000  Level Minneapolis Center
07:39PM 46.4064 -98.2911 106° East 457 526 39,000  Level Minneapolis Center
07:40PM 46.3703 -98.1158 107° East 458 527 39,000  Level Minneapolis Center
07:41PM 46.3356 -97.9400 106° East 458 527 39,000  Level Minneapolis Center
07:42PM 46.2992 -97.7656 107° East 456 525 39,000  Level Minneapolis Center
07:43PM 46.2642 -97.5897 106° East 457 526 39,000  Level Minneapolis Center
07:45PM 46.2208 -97.3789 106° East 460 529 39,000  Level Minneapolis Center
07:46PM 46.1844 -97.2058 107° East 455 524 39,000  Level Minneapolis Center
07:47PM 46.1481 -97.0311 107° East 457 526 39,000  Level Minneapolis Center
07:48PM 46.1133 -96.8678 107° East 455 524 39,000  Level Minneapolis Center
07:49PM 46.0683 -96.6583 107° East 456 525 39,000  Level Minneapolis Center
07:50PM 46.0306 -96.4844 107° East 456 525 39,000  Level Minneapolis Center
07:51PM 45.9933 -96.3111 107° East 455 524 39,000  Level Minneapolis Center
07:52PM 45.9556 -96.1383 107° East 453 521 39,000  Level Minneapolis Center
07:53PM 45.9178 -95.9664 107° East 453 521 39,000  Level Minneapolis Center
07:54PM 45.8806 -95.7944 107° East 451 519 39,000  Level Minneapolis Center
07:55PM 45.8344 -95.5886 108° East 452 520 39,000  Level Minneapolis Center
07:56PM 45.7958 -95.4208 108° East 447 514 39,000  Level Minneapolis Center
07:57PM 45.7581 -95.2533 108° East 444 511 39,000  Level Minneapolis Center
07:58PM 45.7192 -95.0844 108° East 446 513 39,000  Level Minneapolis Center
07:59PM 45.6789 -94.9100 108° East 447 514 39,000  Level Minneapolis Center
08:00PM 45.6389 -94.7411 109° East 450 518 39,000  Level Minneapolis Center
08:01PM 45.6000 -94.5711 108° East 451 519 39,000  Level Minneapolis Center
08:02PM 45.5514 -94.3689 109° East 450 518 39,000  Level Minneapolis Center
08:03PM 45.5108 -94.2003 109° East 451 519 39,000  Level Minneapolis Center
08:04PM 45.4703 -94.0311 109° East 451 519 39,000  Level Minneapolis Center
08:05PM 45.4286 -93.8625 109° East 452 520 39,000  Level Minneapolis Center
08:06PM 45.3881 -93.6933 109° East 453 521 39,000  Level Minneapolis Center
08:07PM 45.3458 -93.5222 109° East 458 527 39,000  Level Minneapolis Center
08:08PM 45.3031 -93.3522 110° East 457 526 39,000  Level Minneapolis Center
08:09PM 45.2519 -93.1481 110° East 456 525 39,000  Level Minneapolis Center
08:10PM 45.2092 -92.9786 110° East 455 524 39,000  Level Minneapolis Center
08:11PM 45.1650 -92.8067 110° East 461 531 39,000  Level Minneapolis Center
08:12PM 45.1219 -92.6361 110° East 460 529 39,000  Level Minneapolis Center
08:13PM 45.0775 -92.4658 110° East 460 529 39,000  Level Minneapolis Center
08:14PM 45.0331 -92.2947 110° East 463 533 39,000  Level Minneapolis Center
08:16PM 44.9794 -92.0903 110° East 463 533 39,000  Level Minneapolis Center
08:17PM 44.9344 -91.9219 111° Southeast 461 531 39,000  Level Minneapolis Center
08:18PM 44.8894 -91.7511 110° East 464 534 39,000  Level Minneapolis Center
08:19PM 44.8442 -91.5828 111° Southeast 462 532 39,000  Level Minneapolis Center
08:20PM 44.7983 -91.4144 111° Southeast 462 532 39,000  Level Minneapolis Center
08:21PM 44.7531 -91.2467 111° Southeast 462 532 39,000  Level Minneapolis Center
08:22PM 44.6972 -91.0444 111° Southeast 462 532 39,000  Level Minneapolis Center
08:23PM 44.6506 -90.8761 111° Southeast 463 533 39,000  Level Minneapolis Center
08:24PM 44.6053 -90.7067 111° Southeast 465 535 39,000  Level Minneapolis Center
08:25PM 44.5569 -90.5333 111° Southeast 462 532 39,000  Level Minneapolis Center
08:26PM 44.5094 -90.3647 112° Southeast 464 534 39,000  Level Minneapolis Center
08:27PM 44.4619 -90.1983 112° Southeast 462 532 39,000  Level Minneapolis Center
08:28PM 44.4150 -90.0317 111° Southeast 463 533 39,000  Level Minneapolis Center
08:29PM 44.3592 -89.8367 112° Southeast 463 533 39,000  Level Minneapolis Center
08:30PM 44.3108 -89.6706 112° Southeast 462 532 39,000  Level Minneapolis Center
08:31PM 44.2617 -89.5050 112° Southeast 461 531 39,000  Level Minneapolis Center
08:32PM 44.2133 -89.3403 112° Southeast 459 528 39,000  Level Minneapolis Center
08:33PM 44.1644 -89.1744 112° Southeast 460 529 39,000  Level Minneapolis Center
08:34PM 44.1158 -89.0103 112° Southeast 460 529 39,000  Level Minneapolis Center
08:35PM 44.0592 -88.8178 112° Southeast 459 528 39,000  Level Minneapolis Center
08:36PM 44.0092 -88.6533 113° Southeast 459 528 39,000  Level Minneapolis Center
08:37PM 43.9597 -88.4894 113° Southeast 458 527 39,000  Level Minneapolis Center
08:38PM 43.9094 -88.3253 113° Southeast 459 528 39,000  Level Minneapolis Center
08:39PM 43.8581 -88.1622 114° Southeast 459 528 39,000  Level Minneapolis Center
08:40PM 43.8081 -87.9989 113° Southeast 458 527 39,000  Level Minneapolis Center
08:41PM 43.7561 -87.8347 114° Southeast 461 531 39,000  Level Minneapolis Center
08:42PM 43.6969 -87.6469 113° Southeast 457 526 39,000  Level Minneapolis Center
08:43PM 43.6814 -87.5928 112° Southeast 457 526 39,000 -300 Level Chicago Center
08:44PM 43.6311 -87.4328 113° Southeast 454 522 38,600 -1,020 Descending Chicago Center
08:45PM 43.5775 -87.2686 114° Southeast 452 520 37,000 -1,860 Descending Chicago Center
08:46PM 43.5281 -87.1136 114° Southeast 443 510 34,800 -1,980 Descending Chicago Center
08:47PM 43.4794 -86.9606 114° Southeast 437 503 33,000 -900 Descending Chicago Center
08:48PM 43.4300 -86.8072 114° Southeast 437 503 33,000  Level Chicago Center
08:49PM 43.3700 -86.6247 114° Southeast 437 503 33,000  Level Chicago Center
08:50PM 43.3203 -86.4706 114° Southeast 441 507 33,000  Level Chicago Center
08:51PM 43.2700 -86.3169 114° Southeast 441 507 33,000 -300 Level Chicago Center
08:52PM 43.2183 -86.1625 115° Southeast 444 511 32,500 -780 Descending Chicago Center
08:53PM 43.1667 -86.0061 114° Southeast 444 511 31,400 -1,260 Descending Chicago Center
08:54PM 43.1136 -85.8464 114° Southeast 445 512 30,000 -1,500 Descending Chicago Center
08:55PM 43.0600 -85.6911 115° Southeast 447 514 28,400 -1,800 Descending Chicago Center
08:56PM 43.0078 -85.5361 115° Southeast 447 514 26,400 -2,100 Descending Chicago Center
08:57PM 42.9556 -85.3853 115° Southeast 440 506 24,100 -2,520 Descending Chicago Center
08:58PM 42.8950 -85.2069 115° Southeast 433 498 21,200 -1,500 Descending Chicago Center
08:59PM 42.8447 -85.0611 115° Southeast 427 491 21,000 -120 Descending Chicago Center
09:00PM 42.7947 -84.9158 115° Southeast 426 490 21,000  Level Chicago Center
09:01PM 42.7714 -84.7597 101° East 424 488 21,000 -840 Level Chicago Center
09:02PM 42.7589 -84.6067 96° East 412 474 19,300 -2,400 Descending Chicago Center
09:03PM 42.7489 -84.4742 96° East 387 445 16,700 -2,820 Descending Cleveland Center
09:04PM 42.7333 -84.3147 98° East 395 455 14,100 -2,400 Descending Cleveland Center
09:05PM 42.7208 -84.1783 97° East 384 442 11,800 -2,100 Descending Cleveland Center
09:06PM 42.7119 -84.0647 96° East 343 395 10,100 -1,680 Descending Cleveland Center
09:07PM 42.6917 -83.9703 106° East 283 326 8,500 -1,500 Descending Cleveland Center
09:08PM 42.6289 -83.9106 145° Southeast 253 291 7,200 -1,200 Descending Cleveland Center
09:09PM 42.5869 -83.8461 131° Southeast 246 283 6,200 -1,020 Descending Cleveland Center
09:10PM 42.6222 -83.7803 54° Northeast 173 199 5,200 -900 Descending Cleveland Center
09:11PM 42.6428 -83.7136 67° East 179 206 4,300 -720 Descending Cleveland Center
09:12PM 42.6553 -83.6322 78° East 204 235 3,700 -840 Descending Cleveland Center
09:14PM 42.6614 -83.5619 83° East 164 189 2,600 -900 Descending Cleveland Center
09:15PM 42.6631 -83.4972 88° East 164 189 1,900 -720 Descending Cleveland Center
09:17PM 42.6500 -83.4167 90° East  Level FlightAware Approximate
09:24PM 42.6656 -83.4205 90° East  Level Estimated
09:25PM 42.6656 -83.4205 90° East  Level Estimated